CPX105 Details

Departure: Huntsville International Airport (KHSV)
Arrival: Miami International Airport (KMIA) at N/A
Route: RMG ATL YANTI Q89 PRMUS OMN HILEY7
Notes:


Current Weather Information
KHSV 251053Z 13004KT 10SM BKN050 BKN065 OVC150 23/22 A3000 RMK AO2 RAB31E53 SLP152 P0000 T02280222 $
KMIA 251053Z 00000KT 10SM FEW025 SCT250 27/24 A2991 RMK AO2 SLP129 CB DSNT SW T02670244